createdAt,value
2018-03-21T00:01:35.692Z,9.63
2018-03-21T00:04:03.796Z,6.97
2018-03-21T00:06:31.919Z,11.03
2018-03-21T00:09:00.019Z,9.03
2018-03-21T00:11:28.155Z,4.97
2018-03-21T00:13:57.025Z,5.70
2018-03-21T00:16:25.158Z,6.90
2018-03-21T00:18:53.255Z,7.63
2018-03-21T00:21:21.412Z,13.43
2018-03-21T00:23:49.515Z,9.83
2018-03-21T00:26:18.439Z,10.40
2018-03-21T00:28:46.559Z,10.70
2018-03-21T00:31:15.299Z,15.27
2018-03-21T00:33:43.418Z,8.30
2018-03-21T00:36:11.553Z,9.30
2018-03-21T00:38:39.666Z,9.07
2018-03-21T00:41:07.791Z,9.90
2018-03-21T00:43:36.660Z,8.73
2018-03-21T00:46:05.657Z,7.10
2018-03-21T00:48:34.531Z,12.57
2018-03-21T00:51:02.659Z,5.83
2018-03-21T00:53:30.768Z,9.40
2018-03-21T00:55:58.890Z,10.73
2018-03-21T00:58:27.008Z,8.37
2018-03-21T01:00:55.146Z,6.30
2018-03-21T01:03:23.274Z,7.23
2018-03-21T01:05:51.403Z,12.17
2018-03-21T01:08:19.507Z,9.63
2018-03-21T01:10:47.632Z,15.60
2018-03-21T01:13:15.735Z,6.93
2018-03-21T01:15:43.863Z,5.37
2018-03-21T01:18:11.976Z,5.57
2018-03-21T01:20:40.129Z,4.60
2018-03-21T01:23:08.248Z,9.10
2018-03-21T01:25:36.382Z,5.00
2018-03-21T01:28:04.499Z,4.33
2018-03-21T01:30:32.639Z,4.87
2018-03-21T01:33:00.758Z,4.70
2018-03-21T01:35:29.668Z,6.23
2018-03-21T01:37:57.782Z,6.83
2018-03-21T01:40:25.920Z,10.60
2018-03-21T01:42:54.038Z,7.40
2018-03-21T01:45:22.174Z,8.13
2018-03-21T01:47:50.295Z,8.87
2018-03-21T01:50:18.437Z,8.53
2018-03-21T01:52:46.565Z,10.67
2018-03-21T01:55:15.469Z,6.73
2018-03-21T01:57:43.589Z,5.33
2018-03-21T02:00:11.716Z,6.07
2018-03-21T02:02:39.835Z,5.53
2018-03-21T02:05:07.954Z,7.07
2018-03-21T02:07:36.059Z,4.03
2018-03-21T02:10:04.200Z,8.50
2018-03-21T02:12:32.344Z,5.50
2018-03-21T02:15:00.522Z,18.80
2018-03-21T02:17:28.636Z,6.80
2018-03-21T02:19:56.735Z,9.00
2018-03-21T02:22:24.876Z,9.20
2018-03-21T02:24:52.989Z,7.10
2018-03-21T02:27:21.124Z,9.23
2018-03-21T02:29:49.243Z,6.17
2018-03-21T02:32:17.492Z,5.10
2018-03-21T02:34:45.621Z,4.20
2018-03-21T02:37:14.521Z,7.47
2018-03-21T02:39:43.408Z,9.37
2018-03-21T02:42:12.302Z,14.23
2018-03-21T02:44:41.177Z,6.50
2018-03-21T02:47:09.313Z,10.43
2018-03-21T02:49:37.424Z,6.70
2018-03-21T02:52:06.320Z,10.77
2018-03-21T02:54:35.313Z,6.40
2018-03-21T02:57:03.727Z,8.67
2018-03-21T02:59:32.676Z,6.17
2018-03-21T03:02:00.799Z,6.43
2018-03-21T03:04:28.915Z,5.10
2018-03-21T03:06:57.046Z,6.33
2018-03-21T03:09:25.157Z,8.97
2018-03-21T03:11:53.279Z,7.13
2018-03-21T03:14:21.383Z,6.40
2018-03-21T03:16:49.513Z,6.50
2018-03-21T03:19:17.618Z,10.00
2018-03-21T03:21:45.750Z,5.27
2018-03-21T03:24:14.615Z,5.23
2018-03-21T03:26:42.757Z,5.30
2018-03-21T03:29:10.856Z,5.83
2018-03-21T03:31:38.979Z,4.80
2018-03-21T03:34:07.090Z,4.40
2018-03-21T03:36:35.227Z,5.93
2018-03-21T03:39:04.661Z,5.00
2018-03-21T03:41:32.784Z,10.90
2018-03-21T03:44:00.902Z,3.87
2018-03-21T03:46:29.040Z,6.00
2018-03-21T03:48:57.146Z,7.10
2018-03-21T03:51:25.288Z,7.50
2018-03-21T03:53:58.939Z,7.57
2018-03-21T03:56:27.054Z,7.10
2018-03-21T03:58:56.036Z,8.47
2018-03-21T04:01:24.924Z,4.27
2018-03-21T04:03:53.801Z,10.30
2018-03-21T04:06:21.922Z,7.27
2018-03-21T04:08:50.035Z,7.00
2018-03-21T04:11:18.177Z,4.50
2018-03-21T04:13:47.101Z,8.20
2018-03-21T04:16:15.218Z,6.40
2018-03-21T04:18:43.322Z,6.97
2018-03-21T04:21:11.459Z,5.23
2018-03-21T04:23:39.560Z,5.40
2018-03-21T04:26:07.705Z,5.07
2018-03-21T04:28:36.254Z,5.70
2018-03-21T04:31:05.579Z,10.80
2018-03-21T04:33:34.447Z,7.77
2018-03-21T04:36:02.578Z,8.40
2018-03-21T04:38:30.679Z,6.70
2018-03-21T04:40:58.813Z,7.27
2018-03-21T04:43:26.932Z,7.60
2018-03-21T04:45:55.069Z,12.00
2018-03-21T04:48:23.577Z,7.03
2018-03-21T04:50:51.724Z,8.23
2018-03-21T04:53:20.773Z,7.43
2018-03-21T04:55:49.661Z,6.73
2018-03-21T04:58:17.800Z,11.10
2018-03-21T05:00:46.320Z,14.07
2018-03-21T05:03:15.219Z,12.97
2018-03-21T05:05:43.403Z,8.57
2018-03-21T05:08:11.563Z,10.67
2018-03-21T05:10:40.429Z,11.90
2018-03-21T05:13:08.556Z,9.40
2018-03-21T05:15:36.681Z,8.27
2018-03-21T05:18:04.815Z,6.67
2018-03-21T05:20:32.944Z,7.30
2018-03-21T05:23:01.088Z,9.70
2018-03-21T05:25:29.197Z,9.23
2018-03-21T05:27:58.228Z,7.60
2018-03-21T05:30:27.166Z,9.10
2018-03-21T05:32:55.300Z,7.30
2018-03-21T05:35:23.407Z,7.73
2018-03-21T05:37:51.545Z,6.33
2018-03-21T05:40:20.573Z,9.60
2018-03-21T05:42:49.668Z,6.70
2018-03-21T05:45:17.890Z,8.83
2018-03-21T05:47:46.053Z,16.13
2018-03-21T05:50:14.150Z,9.30
2018-03-21T05:52:42.290Z,8.70
2018-03-21T05:55:11.147Z,8.50
2018-03-21T05:57:39.276Z,10.70
2018-03-21T06:00:07.419Z,14.47
2018-03-21T06:02:35.553Z,26.13
2018-03-21T06:05:03.648Z,15.50
2018-03-21T06:07:31.774Z,14.60
2018-03-21T06:09:59.893Z,18.30
2018-03-21T06:12:28.010Z,22.80
2018-03-21T06:14:56.965Z,22.27
2018-03-21T06:17:25.098Z,16.50
2018-03-21T06:19:54.341Z,13.80
2018-03-21T06:22:22.939Z,15.00
2018-03-21T06:24:51.829Z,10.10
2018-03-21T06:27:19.959Z,11.23
2018-03-21T06:29:48.080Z,9.90
2018-03-21T06:32:16.992Z,9.20
2018-03-21T06:34:45.104Z,9.20
2018-03-21T06:37:13.258Z,10.03
2018-03-21T06:39:41.376Z,35.90
2018-03-21T06:42:09.517Z,12.80
2018-03-21T06:44:37.680Z,15.70
2018-03-21T06:47:05.790Z,12.17
2018-03-21T06:49:33.905Z,10.20
2018-03-21T06:52:02.051Z,10.60
2018-03-21T06:54:30.178Z,12.47
2018-03-21T06:56:59.731Z,7.47
2018-03-21T06:59:29.556Z,10.20
2018-03-21T07:01:58.457Z,12.47
2018-03-21T07:04:27.598Z,9.53
2018-03-21T07:06:56.614Z,10.10
2018-03-21T07:09:24.736Z,11.63
2018-03-21T07:11:52.867Z,9.83
2018-03-21T07:14:32.852Z,10.50
2018-03-21T07:17:00.995Z,12.40
2018-03-21T07:19:29.105Z,8.70
2018-03-21T07:21:57.245Z,8.80
2018-03-21T07:24:25.361Z,12.27
2018-03-21T07:26:53.488Z,9.70
2018-03-21T07:29:21.592Z,13.03
2018-03-21T07:31:49.737Z,15.40
2018-03-21T07:34:17.952Z,11.43
2018-03-21T07:36:46.300Z,8.60
2018-03-21T07:39:15.571Z,8.73
2018-03-21T07:41:44.182Z,12.00
2018-03-21T07:44:12.390Z,10.30
2018-03-21T07:46:40.503Z,8.20
2018-03-21T07:49:08.625Z,10.43
2018-03-21T07:51:37.716Z,11.17
2018-03-21T07:54:05.843Z,8.20
2018-03-21T07:56:33.998Z,9.03
2018-03-21T07:59:02.136Z,10.37
2018-03-21T08:01:30.270Z,7.37
2018-03-21T08:03:58.399Z,11.23
2018-03-21T08:06:26.507Z,6.07
2018-03-21T08:08:54.632Z,10.63
2018-03-21T08:11:22.742Z,11.50
2018-03-21T08:13:50.877Z,7.70
2018-03-21T08:16:20.128Z,11.00
2018-03-21T08:18:48.300Z,13.40
2018-03-21T08:21:16.619Z,7.87
2018-03-21T08:23:45.111Z,12.63
2018-03-21T08:26:13.227Z,8.83
2018-03-21T08:28:41.356Z,7.37
2018-03-21T08:31:09.460Z,18.97
2018-03-21T08:33:38.355Z,7.57
2018-03-21T08:36:06.564Z,10.30
2018-03-21T08:38:35.551Z,14.13
2018-03-21T08:41:03.667Z,9.07
2018-03-21T08:43:31.839Z,8.50
2018-03-21T08:45:59.904Z,7.70
2018-03-21T08:48:28.795Z,9.13
2018-03-21T08:50:56.904Z,7.23
2018-03-21T08:53:25.067Z,6.37
2018-03-21T08:55:53.179Z,8.73
2018-03-21T08:58:21.378Z,6.83
2018-03-21T09:00:50.270Z,8.03
2018-03-21T09:03:18.415Z,12.90
2018-03-21T09:05:46.529Z,8.87
2018-03-21T09:08:14.666Z,8.00
2018-03-21T09:10:42.766Z,7.47
2018-03-21T09:13:10.955Z,9.13
2018-03-21T09:15:39.064Z,8.90
2018-03-21T09:18:07.355Z,9.53
2018-03-21T09:20:35.469Z,8.70
2018-03-21T09:23:03.613Z,9.93
2018-03-21T09:25:31.714Z,11.63
2018-03-21T09:27:59.863Z,8.93
2018-03-21T09:30:27.972Z,9.80
2018-03-21T09:32:56.119Z,9.00
2018-03-21T09:35:24.998Z,13.50
2018-03-21T09:37:53.130Z,10.70
2018-03-21T09:40:21.241Z,9.37
2018-03-21T09:42:49.381Z,7.60
2018-03-21T09:45:17.493Z,11.57
2018-03-21T09:47:45.610Z,8.00
2018-03-21T09:50:13.724Z,9.43
2018-03-21T09:52:41.840Z,11.90
2018-03-21T09:55:09.976Z,11.70
2018-03-21T09:57:38.100Z,9.50
2018-03-21T10:00:06.308Z,9.97
2018-03-21T10:02:34.601Z,6.63
2018-03-21T10:05:02.748Z,6.87
2018-03-21T10:07:30.862Z,5.00
2018-03-21T10:09:59.783Z,14.93
2018-03-21T10:12:27.910Z,7.47
2018-03-21T10:14:56.045Z,8.20
2018-03-21T10:17:24.161Z,6.87
2018-03-21T10:19:52.286Z,6.10
2018-03-21T10:22:20.390Z,6.97
2018-03-21T10:24:48.537Z,9.50
2018-03-21T10:27:16.648Z,8.90
2018-03-21T10:29:44.776Z,6.40
2018-03-21T10:32:12.890Z,8.10
2018-03-21T10:34:41.021Z,8.17
2018-03-21T10:37:09.136Z,6.57
2018-03-21T10:39:37.264Z,6.20
2018-03-21T10:42:05.373Z,7.60
2018-03-21T10:44:33.509Z,7.43
2018-03-21T10:47:01.628Z,5.93
2018-03-21T10:49:29.754Z,7.63
2018-03-21T10:51:57.866Z,5.53
2018-03-21T10:54:25.990Z,6.07
2018-03-21T10:56:54.091Z,7.20
2018-03-21T10:59:22.240Z,7.33
2018-03-21T11:01:56.104Z,8.87
2018-03-21T11:04:24.232Z,6.17
2018-03-21T11:06:52.332Z,10.67
2018-03-21T11:09:20.455Z,6.20
2018-03-21T11:11:48.573Z,5.83
2018-03-21T11:14:16.700Z,5.23
2018-03-21T11:16:46.361Z,5.87
2018-03-21T11:19:14.518Z,5.47
2018-03-21T11:21:42.601Z,6.13
2018-03-21T11:24:10.729Z,4.87
2018-03-21T11:26:38.828Z,8.03
2018-03-21T11:29:06.966Z,6.70
2018-03-21T11:31:35.829Z,8.93
2018-03-21T11:34:03.953Z,3.43
2018-03-21T11:36:32.073Z,4.80
2018-03-21T11:39:00.202Z,4.87
2018-03-21T11:41:28.316Z,6.23
2018-03-21T11:43:57.159Z,5.80
2018-03-21T11:46:25.284Z,7.80
2018-03-21T11:48:53.447Z,7.23
2018-03-21T11:51:21.560Z,6.43
2018-03-21T11:53:50.444Z,8.73
2018-03-21T11:56:19.303Z,7.13
2018-03-21T11:58:47.416Z,5.80
2018-03-21T12:01:16.545Z,7.23
2018-03-21T12:03:44.691Z,8.80
2018-03-21T12:06:12.794Z,6.10
2018-03-21T12:08:40.949Z,6.00
2018-03-21T12:11:09.787Z,11.63
2018-03-21T12:13:38.017Z,6.37
2018-03-21T12:16:06.120Z,7.70
2018-03-21T12:18:34.216Z,7.30
2018-03-21T12:21:03.105Z,6.80
2018-03-21T12:23:31.195Z,6.63
2018-03-21T12:26:00.089Z,5.30
2018-03-21T12:28:29.021Z,6.93
2018-03-21T12:30:57.145Z,6.03
2018-03-21T12:33:26.008Z,6.40
2018-03-21T12:35:54.161Z,7.03
2018-03-21T12:38:22.252Z,6.53
2018-03-21T12:40:51.229Z,3.40
2018-03-21T12:43:19.408Z,12.23
2018-03-21T12:45:47.526Z,5.70
2018-03-21T12:48:16.388Z,7.23
2018-03-21T12:50:44.514Z,4.20
2018-03-21T12:53:12.620Z,4.47
2018-03-21T12:55:40.793Z,5.60
2018-03-21T12:58:08.892Z,4.03
2018-03-21T13:00:37.788Z,7.50
2018-03-21T13:03:06.655Z,10.73
2018-03-21T13:05:34.793Z,5.97
2018-03-21T13:08:02.904Z,6.37
2018-03-21T13:10:31.029Z,7.77
2018-03-21T13:12:59.132Z,3.00
2018-03-21T13:15:27.270Z,3.90
2018-03-21T13:17:55.390Z,7.73
2018-03-21T13:20:23.518Z,5.20
2018-03-21T13:22:51.617Z,2.87
2018-03-21T13:25:19.752Z,6.27
2018-03-21T13:27:48.643Z,5.20
2018-03-21T13:30:17.524Z,5.83
2018-03-21T13:32:46.394Z,8.70
2018-03-21T13:35:15.295Z,4.27
2018-03-21T13:37:43.413Z,5.13
2018-03-21T13:40:11.556Z,5.80
2018-03-21T13:42:40.433Z,7.50
2018-03-21T13:45:09.342Z,9.67
2018-03-21T13:47:38.215Z,4.17
2018-03-21T13:50:07.137Z,3.80
2018-03-21T13:52:35.234Z,4.07
2018-03-21T13:55:04.123Z,4.70
2018-03-21T13:57:33.004Z,5.07
2018-03-21T14:00:01.144Z,9.40
2018-03-21T14:02:29.256Z,4.50
2018-03-21T14:04:58.158Z,3.80
2018-03-21T14:07:27.393Z,4.37
2018-03-21T14:09:55.525Z,5.57
2018-03-21T14:12:24.405Z,10.17
2018-03-21T14:14:52.548Z,10.63
2018-03-21T14:17:20.656Z,5.60
2018-03-21T14:19:48.780Z,6.27
2018-03-21T14:22:16.928Z,6.50
2018-03-21T14:24:45.825Z,6.40
2018-03-21T14:27:13.921Z,6.20
2018-03-21T14:29:42.074Z,4.80
2018-03-21T14:32:10.177Z,7.83
2018-03-21T14:34:38.320Z,10.73
2018-03-21T14:37:06.437Z,6.07
2018-03-21T14:39:34.572Z,8.80
2018-03-21T14:42:02.682Z,7.53
2018-03-21T14:44:30.825Z,10.50
2018-03-21T14:46:58.945Z,11.10
2018-03-21T14:49:27.093Z,7.40
2018-03-21T14:51:55.208Z,14.17
2018-03-21T14:54:24.172Z,6.93
2018-03-21T14:56:52.293Z,10.33
2018-03-21T14:59:21.176Z,10.40
2018-03-21T15:01:50.092Z,10.53
2018-03-21T15:04:18.214Z,11.40
2018-03-21T15:06:46.362Z,11.33
2018-03-21T15:09:15.239Z,11.70
2018-03-21T15:11:43.379Z,12.30
2018-03-21T15:14:12.274Z,16.00
2018-03-21T15:16:41.169Z,9.80
2018-03-21T15:19:10.980Z,12.33
2018-03-21T15:21:39.060Z,16.83
2018-03-21T15:24:07.178Z,12.57
2018-03-21T15:26:35.320Z,25.20
2018-03-21T15:29:03.441Z,13.03
2018-03-21T15:31:31.571Z,19.00
2018-03-21T15:33:59.682Z,17.50
2018-03-21T15:36:27.819Z,14.43
2018-03-21T15:38:56.425Z,16.50
2018-03-21T15:41:24.567Z,18.73
2018-03-21T15:43:53.194Z,18.13
2018-03-21T15:46:21.417Z,16.33
2018-03-21T15:48:49.574Z,10.10
2018-03-21T15:51:18.563Z,19.10
2018-03-21T15:53:46.661Z,13.67
2018-03-21T15:56:14.795Z,9.37
2018-03-21T15:58:42.899Z,16.23
2018-03-21T16:01:11.045Z,11.87
2018-03-21T16:03:39.157Z,12.60
2018-03-21T16:06:07.290Z,16.13
2018-03-21T16:08:35.461Z,12.47
2018-03-21T16:11:03.593Z,10.53
2018-03-21T16:13:31.757Z,11.70
2018-03-21T16:15:59.888Z,12.27
2018-03-21T16:18:28.009Z,11.07
2018-03-21T16:20:56.146Z,12.07
2018-03-21T16:23:25.031Z,15.27
2018-03-21T16:25:53.174Z,11.33
2018-03-21T16:28:21.301Z,13.20
2018-03-21T16:30:49.431Z,28.23
2018-03-21T16:33:17.545Z,14.30
2018-03-21T16:35:45.693Z,12.47
2018-03-21T16:38:13.805Z,13.03
2018-03-21T16:40:41.948Z,13.43
2018-03-21T16:43:10.838Z,18.57
2018-03-21T16:45:39.748Z,9.60
2018-03-21T16:48:07.874Z,18.03
2018-03-21T16:50:36.000Z,18.03
2018-03-21T16:53:04.139Z,22.53
2018-03-21T16:55:32.322Z,17.23
2018-03-21T16:58:00.434Z,17.00
2018-03-21T17:00:28.631Z,12.23
2018-03-21T17:02:56.748Z,14.97
2018-03-21T17:05:25.649Z,13.00
2018-03-21T17:07:55.110Z,11.23
2018-03-21T17:10:25.193Z,17.57
2018-03-21T17:12:53.417Z,21.73
2018-03-21T17:15:21.561Z,12.00
2018-03-21T17:17:49.674Z,12.97
2018-03-21T17:20:17.814Z,14.47
2018-03-21T17:22:45.952Z,12.00
2018-03-21T17:25:14.840Z,15.20
2018-03-21T17:27:43.736Z,13.07
2018-03-21T17:30:11.859Z,13.83
2018-03-21T17:32:40.022Z,15.23
2018-03-21T17:35:08.159Z,13.20
2018-03-21T17:37:36.291Z,15.53
2018-03-21T17:40:04.416Z,13.70
2018-03-21T17:42:32.556Z,13.63
2018-03-21T17:45:01.443Z,14.30
2018-03-21T17:47:29.586Z,18.63
2018-03-21T17:49:57.794Z,15.13
2018-03-21T17:52:26.693Z,17.63
2018-03-21T17:54:55.671Z,12.10
2018-03-21T17:57:23.801Z,13.90
2018-03-21T17:59:51.922Z,12.53
2018-03-21T18:02:20.821Z,20.27
2018-03-21T18:04:49.285Z,15.37
2018-03-21T18:07:17.421Z,14.87
2018-03-21T18:09:45.534Z,21.53
2018-03-21T18:12:13.685Z,19.00
2018-03-21T18:14:43.538Z,32.60
2018-03-21T18:17:12.495Z,27.10
2018-03-21T18:19:40.602Z,38.83
2018-03-21T18:22:09.497Z,19.80
2018-03-21T18:24:37.702Z,20.80
2018-03-21T18:27:05.899Z,26.23
2018-03-21T18:29:34.824Z,23.80
2018-03-21T18:32:03.061Z,26.33
2018-03-21T18:34:31.144Z,20.83
2018-03-21T18:36:59.273Z,17.13
2018-03-21T18:39:27.413Z,18.70
2018-03-21T18:41:55.578Z,18.07
2018-03-21T18:44:23.713Z,21.73
2018-03-21T18:46:52.274Z,18.90
2018-03-21T18:49:21.256Z,29.20
2018-03-21T18:51:50.166Z,30.00
2018-03-21T18:54:18.276Z,16.87
2018-03-21T18:56:46.434Z,17.20
2018-03-21T18:59:14.606Z,26.13
2018-03-21T19:01:42.736Z,19.60
2018-03-21T19:04:10.871Z,27.20
2018-03-21T19:06:39.014Z,24.80
2018-03-21T19:09:07.310Z,28.40
2018-03-21T19:11:36.275Z,23.03
2018-03-21T19:14:04.384Z,20.20
2018-03-21T19:16:32.535Z,21.43
2018-03-21T19:19:00.650Z,20.03
2018-03-21T19:21:28.773Z,17.83
2018-03-21T19:23:56.900Z,24.73
2018-03-21T19:26:25.049Z,24.93
2018-03-21T19:28:53.174Z,20.17
2018-03-21T19:31:22.073Z,24.03
2018-03-21T19:33:50.203Z,23.37
2018-03-21T19:36:18.343Z,23.80
2018-03-21T19:38:46.502Z,21.60
2018-03-21T19:41:15.393Z,20.50
2018-03-21T19:43:43.528Z,29.20
2018-03-21T19:46:11.679Z,17.77
2018-03-21T19:48:39.788Z,24.27
2018-03-21T19:51:08.854Z,20.60
2018-03-21T19:53:37.964Z,26.40
2018-03-21T19:56:06.161Z,21.20
2018-03-21T19:58:34.484Z,23.70
2018-03-21T20:01:02.628Z,25.30
2018-03-21T20:03:32.265Z,26.20
2018-03-21T20:06:00.594Z,22.10
2018-03-21T20:08:29.501Z,25.27
2018-03-21T20:10:57.749Z,21.50
2018-03-21T20:13:25.904Z,21.20
2018-03-21T20:15:54.069Z,23.10
2018-03-21T20:18:22.213Z,19.70
2018-03-21T20:20:50.341Z,21.70
2018-03-21T20:23:19.093Z,19.47
2018-03-21T20:25:48.227Z,25.00
2018-03-21T20:28:16.374Z,22.87
2018-03-21T20:30:44.472Z,24.70
2018-03-21T20:33:12.616Z,21.07
2018-03-21T20:35:41.545Z,123.90
2018-03-21T20:38:09.822Z,206.73
2018-03-21T20:40:37.948Z,64.77
2018-03-21T20:43:06.117Z,37.60
2018-03-21T20:45:34.320Z,36.97
2018-03-21T20:48:02.671Z,31.30
2018-03-21T20:50:30.838Z,23.47
2018-03-21T20:52:58.980Z,29.80
2018-03-21T20:55:27.862Z,32.63
2018-03-21T20:57:56.759Z,25.73
2018-03-21T21:00:25.639Z,21.17
2018-03-21T21:02:53.780Z,22.37
2018-03-21T21:05:21.908Z,22.73
2018-03-21T21:07:50.057Z,20.77
2018-03-21T21:10:18.218Z,22.57
2018-03-21T21:12:46.413Z,33.33
2018-03-21T21:15:15.435Z,25.13
2018-03-21T21:17:43.591Z,27.10
2018-03-21T21:20:12.479Z,26.93
2018-03-21T21:22:41.388Z,25.13
2018-03-21T21:25:09.500Z,29.50
2018-03-21T21:27:38.099Z,31.77
2018-03-21T21:30:06.286Z,26.07
2018-03-21T21:32:34.446Z,34.00
2018-03-21T21:35:02.559Z,28.07
2018-03-21T21:37:31.461Z,37.97
2018-03-21T21:39:59.600Z,50.63
2018-03-21T21:42:27.777Z,28.27
2018-03-21T21:44:55.983Z,37.37
2018-03-21T21:47:24.864Z,31.40
2018-03-21T21:49:53.742Z,32.97
2018-03-21T21:52:22.637Z,31.53
2018-03-21T21:54:51.527Z,33.13
2018-03-21T21:57:20.433Z,32.63
2018-03-21T21:59:48.545Z,28.80
2018-03-21T22:02:16.696Z,36.97
2018-03-21T22:04:44.815Z,54.50
2018-03-21T22:07:12.989Z,39.40
2018-03-21T22:09:41.136Z,46.47
2018-03-21T22:12:09.754Z,36.40
2018-03-21T22:14:38.653Z,42.77
2018-03-21T22:17:06.818Z,48.63
2018-03-21T22:19:34.965Z,44.03
2018-03-21T22:22:03.155Z,54.10
2018-03-21T22:24:31.448Z,43.27
2018-03-21T22:26:59.599Z,56.43
2018-03-21T22:29:28.525Z,56.73
2018-03-21T22:31:57.448Z,53.60
2018-03-21T22:34:25.556Z,55.57
2018-03-21T22:36:53.689Z,52.60
2018-03-21T22:39:21.831Z,59.27
2018-03-21T22:41:49.995Z,51.83
2018-03-21T22:44:18.150Z,56.80
2018-03-21T22:46:46.266Z,57.23
2018-03-21T22:49:14.410Z,62.07
2018-03-21T22:51:42.534Z,54.53
2018-03-21T22:54:10.674Z,50.17
2018-03-21T22:56:39.562Z,62.77
2018-03-21T22:59:07.714Z,46.80
2018-03-21T23:01:35.841Z,54.23
2018-03-21T23:04:03.983Z,48.73
2018-03-21T23:06:32.116Z,56.70
2018-03-21T23:09:00.249Z,53.20
2018-03-21T23:11:28.375Z,54.73
2018-03-21T23:13:56.536Z,51.00
2018-03-21T23:16:25.429Z,56.73
2018-03-21T23:18:54.350Z,47.80
2018-03-21T23:21:22.468Z,48.10
2018-03-21T23:23:51.470Z,47.67
2018-03-21T23:26:19.604Z,52.23
2018-03-21T23:28:47.747Z,58.07
2018-03-21T23:31:15.864Z,60.00
2018-03-21T23:33:44.766Z,56.80
2018-03-21T23:36:12.945Z,57.40
2018-03-21T23:38:41.829Z,61.60
2018-03-21T23:41:09.954Z,53.63
2018-03-21T23:43:38.114Z,52.83
2018-03-21T23:46:06.229Z,48.27
2018-03-21T23:48:35.155Z,55.93
2018-03-21T23:51:03.290Z,53.00
2018-03-21T23:53:32.925Z,45.17
2018-03-21T23:56:01.048Z,48.13
2018-03-21T23:58:29.204Z,47.30
